메인 페이지
METAR-TAF:

METAR-TAF

공항 :

팔라우 국제공항

코로르, 바벨다오브 섬, 팔라우

위도: 07-22N, 경도: 134-32E, 고도: 54m

현재 날씨관측

예보는 51분 전, 15:50시(UTC)에 발표되었습니다.
북서10kt, 순간 최대 풍속 19kt
온도 25°C
습도 83%
기압 1006 hPa
시정: 20.9km
고도 1500ft 상공 구름 많음, 적란운.
고도 29000ft 상공 흐림

METAR: PTRO 151550Z 31010G19KT 13SM BKN015CB OVC290 25/22 A2970 RMK CB ALQDS AND OHD MOV SE

시각: 01:41 (16:41 UTC)

예보

예보는 5 시간 21분 전, 11:20시(UTC)에 발표되었습니다.
예보 대상 시간: 15일 12시부터 16일 12시까지 (UTC)
서북서11kt
시정: 10km
고도 1600ft 상공 구름 보통
고도 4000ft 상공 구름 많음
고도 11000ft 상공 흐림
시계 내 소나기
일시적
15일 12시부터 15일 16시까지 (UTC)
서북서11kt, 순간 최대 풍속 20kt
고도 1500ft 상공 구름 많음

TAF: PTRO 151120Z 1512/1612 30011KT P6SM VCSH SCT016 BKN040 OVC110 TEMPO 1512/1516 30011G20KT BKN015

4,000개 이상의 공항 관측 자료 및 예보 (METAR 및 TAF 보고).

지도상에서 검색 가능한 기상관측소가 노란 점과 빨간 점으로 표시되어 있습니다.

기상관측소 명을 보려면 표시 위로 마우스를 이동하세요.

날씨 관측과 예보를 보려면 클릭하세요.

지도 변경 : 확대하려면 엑스 표시가 있는 녹색 버튼, 축소하려면 빼기 표시가 있는 녹색 버튼, 다음 페이지의 지도를 보려면 녹색 화살표를 클릭하세요.


METAR-TAF: